IBE103 LEBL-KMIA
Flight info
| Callsign | IBE103 |
|---|---|
| Flight time | N/A |
| Altitude | 33000 |
| Route | LOBAR N725 NUBLO/N0485F340 DCT SUSOS DCT STG DCT MUDOS/M083F340 DCT 43N020W 42N030W/M083F360 40N040W 37N050W/M083F380 33N060W DCT NUMBR DCT SHEIL M330 RUDLI/M083F400 M330 MILLE/N0472F400 DCT ZQA VIICE2 |
| Aircraft | A333/H-SDE3GHIJ2J3J5M1RVWXY/LB2D1 |
Departure
| Time | 2026-05-05 10:13 |
|---|---|
| Airport | Josep Tarradellas Barcelona-El Prat Airport (LEBL) |
Arrival
| Time | N/A |
|---|---|
| Airport | Miami International Airport (KMIA) |
| Time | Latitude | Longitude | Altitude | Speed | Heading |
|---|---|---|---|---|---|
| 2026-05-05 09:43 | 41.28699 | 2.07700 | 26 ft | 0 kts | 335° |
| 2026-05-05 10:02 | 41.28678 | 2.07712 | 27 ft | 4 kts | 340° |
| 2026-05-05 10:02 | 41.28652 | 2.07722 | 26 ft | 4 kts | 348° |
| 2026-05-05 10:03 | 41.28626 | 2.07726 | 25 ft | 4 kts | 6° |
| 2026-05-05 10:03 | 41.28604 | 2.07716 | 26 ft | 4 kts | 56° |
| 2026-05-05 10:03 | 41.28601 | 2.07711 | 26 ft | 0 kts | 65° |
| 2026-05-05 10:06 | 41.28604 | 2.07721 | 25 ft | 4 kts | 65° |
| 2026-05-05 10:06 | 41.28614 | 2.07751 | 23 ft | 3 kts | 65° |
| 2026-05-05 10:06 | 41.28625 | 2.07780 | 22 ft | 4 kts | 65° |
| 2026-05-05 10:06 | 41.28637 | 2.07816 | 23 ft | 5 kts | 65° |
| 2026-05-05 10:07 | 41.28655 | 2.07869 | 20 ft | 7 kts | 66° |
| 2026-05-05 10:07 | 41.28672 | 2.07936 | 21 ft | 8 kts | 74° |
| 2026-05-05 10:07 | 41.28693 | 2.08004 | 19 ft | 8 kts | 65° |
| 2026-05-05 10:07 | 41.28716 | 2.08070 | 21 ft | 7 kts | 66° |
| 2026-05-05 10:08 | 41.28738 | 2.08136 | 20 ft | 11 kts | 66° |
| 2026-05-05 10:08 | 41.28734 | 2.08213 | 20 ft | 6 kts | 138° |
| 2026-05-05 10:08 | 41.28713 | 2.08249 | 20 ft | 6 kts | 107° |
| 2026-05-05 10:08 | 41.28730 | 2.08345 | 19 ft | 14 kts | 65° |
| 2026-05-05 10:09 | 41.28772 | 2.08467 | 25 ft | 13 kts | 65° |
| 2026-05-05 10:09 | 41.28817 | 2.08596 | 22 ft | 19 kts | 65° |
| 2026-05-05 10:09 | 41.28878 | 2.08774 | 21 ft | 24 kts | 66° |
| 2026-05-05 10:09 | 41.28954 | 2.08998 | 22 ft | 28 kts | 65° |
| 2026-05-05 10:10 | 41.29034 | 2.09228 | 24 ft | 26 kts | 66° |
| 2026-05-05 10:10 | 41.29108 | 2.09443 | 23 ft | 25 kts | 66° |
| 2026-05-05 10:10 | 41.29176 | 2.09646 | 24 ft | 23 kts | 65° |
| 2026-05-05 10:10 | 41.29241 | 2.09835 | 23 ft | 22 kts | 65° |
| 2026-05-05 10:11 | 41.29274 | 2.10007 | 21 ft | 17 kts | 103° |
| 2026-05-05 10:11 | 41.29239 | 2.10156 | 19 ft | 16 kts | 98° |
| 2026-05-05 10:11 | 41.29253 | 2.10288 | 17 ft | 9 kts | 100° |
| 2026-05-05 10:11 | 41.29238 | 2.10305 | 18 ft | 5 kts | 163° |
| 2026-05-05 10:12 | 41.29200 | 2.10284 | 20 ft | 3 kts | 235° |
| 2026-05-05 10:12 | 41.29195 | 2.10270 | 19 ft | 8 kts | 246° |
| 2026-05-05 10:12 | 41.29091 | 2.09960 | 25 ft | 66 kts | 246° |
| 2026-05-05 10:12 | 41.28823 | 2.09173 | 22 ft | 119 kts | 245° |
| 2026-05-05 10:13 | 41.28414 | 2.07985 | 58 ft | 159 kts | 248° |
| 2026-05-05 10:13 | 41.27927 | 2.06648 | 588 ft | 161 kts | 248° |
| 2026-05-05 10:13 | 41.27334 | 2.05422 | 1171 ft | 166 kts | 221° |
| 2026-05-05 10:13 | 41.26135 | 2.04944 | 1498 ft | 187 kts | 185° |
| 2026-05-05 10:14 | 41.24899 | 2.04914 | 2139 ft | 173 kts | 184° |
| 2026-05-05 10:14 | 41.23699 | 2.04834 | 2497 ft | 172 kts | 188° |
| 2026-05-05 10:14 | 41.22508 | 2.04664 | 2831 ft | 171 kts | 192° |
| 2026-05-05 10:14 | 41.21326 | 2.04433 | 3145 ft | 175 kts | 193° |
| 2026-05-05 10:15 | 41.20092 | 2.04147 | 3311 ft | 187 kts | 193° |
| 2026-05-05 10:15 | 41.18832 | 2.03574 | 3454 ft | 198 kts | 217° |
| 2026-05-05 10:15 | 41.17814 | 2.02252 | 3562 ft | 215 kts | 231° |
| 2026-05-05 10:15 | 41.16855 | 2.00624 | 3755 ft | 232 kts | 233° |
| 2026-05-05 10:16 | 41.15847 | 1.98857 | 4020 ft | 246 kts | 233° |
| 2026-05-05 10:16 | 41.14802 | 1.97040 | 4540 ft | 249 kts | 232° |
| 2026-05-05 10:16 | 41.13765 | 1.95186 | 5080 ft | 251 kts | 238° |
| 2026-05-05 10:16 | 41.13032 | 1.93071 | 5661 ft | 255 kts | 249° |
| 2026-05-05 10:17 | 41.12488 | 1.90814 | 6312 ft | 259 kts | 251° |
| 2026-05-05 10:17 | 41.11966 | 1.88527 | 7012 ft | 259 kts | 251° |
| 2026-05-05 10:17 | 41.11519 | 1.86258 | 7729 ft | 257 kts | 259° |
| 2026-05-05 10:17 | 41.11603 | 1.83881 | 8337 ft | 264 kts | 281° |
| 2026-05-05 10:18 | 41.12198 | 1.81538 | 8870 ft | 271 kts | 287° |
| 2026-05-05 10:18 | 41.12907 | 1.79206 | 9467 ft | 274 kts | 288° |
| 2026-05-05 10:18 | 41.13751 | 1.76918 | 10027 ft | 280 kts | 298° |
| 2026-05-05 10:18 | 41.15136 | 1.74982 | 10310 ft | 303 kts | 319° |
| 2026-05-05 10:19 | 41.16981 | 1.73468 | 10530 ft | 320 kts | 326° |
| 2026-05-05 10:19 | 41.18977 | 1.72016 | 10733 ft | 335 kts | 327° |
| 2026-05-05 10:19 | 41.21016 | 1.70399 | 10953 ft | 345 kts | 319° |
| 2026-05-05 10:19 | 41.22913 | 1.68365 | 11181 ft | 356 kts | 314° |
| 2026-05-05 10:20 | 41.24800 | 1.66138 | 11371 ft | 368 kts | 314° |
| 2026-05-05 10:20 | 41.26723 | 1.63830 | 11705 ft | 376 kts | 314° |
| 2026-05-05 10:20 | 41.28675 | 1.61488 | 12131 ft | 380 kts | 314° |